Main page
METAR-TAF:

METAR-TAF

Airports :

Flugplatz Grafenwöhr

Grafenwöhr, Germany

latitude: 49-42N, longitude: 011-57E, elevation: 415 m

Current weather observation

The report was made 1 hour and 4 minutes ago, at 10:56 UTC
Wind 4 kt from the South
Temperature 6°C
Humidity 36%
Pressure 1020 hPa
Visibility 10 km or more
Clear sky

METAR: ETIC 011056Z AUTO 18004KT 9999 CLR 06/M08 A3011 RMK AO2 SLP219 T00561080 $

Time: 14:00 (12:00 UTC)

Forecast

The report was made 2 hours and 0 minutes ago, at 10:00 UTC
Forecast valid from 01 at 10 UTC to 02 at 16 UTC
Wind 6 kt from variable directions
Visibility 10 km or more
Clear sky
Becoming
from 02 at 07 UTC to 02 at 08 UTC
Wind 6 kt from variable directions
Visibility 10 km or more
Few clouds at a height of 3000 ft

TAF: ETIC 011000Z 0110/0216 VRB06KT 9999 SKC QNH2997INS BECMG 0207/0208 VRB06KT 9999 FEW030 QNH2985INS TX05/0113Z TNM04/0204Z

Weather observations and forecasts of more than 4000 airports (METAR and TAF reports).

The available stations are represented by yellow and red dots on the map.

Hover mouse over dot to see the name of the station.

Then click to see weather observations and forecasts.

To change the map : click on the green buttons with a black cross to zoom in, on the green button with a dash to zoom out, or on the green arrows for adjacent maps.


METAR-TAF: